createdAt,value
2023-01-19T06:53:44.326Z,24.86
2023-01-19T06:57:44.310Z,24.88
2023-01-19T06:58:44.413Z,24.86
2023-01-19T07:04:44.229Z,24.82
2023-01-19T07:12:44.635Z,24.77
2023-01-19T07:17:59.758Z,24.78
2023-01-19T07:24:44.039Z,24.71
2023-01-19T07:41:44.480Z,24.71
2023-01-19T07:43:43.904Z,24.68
2023-01-19T07:50:44.194Z,24.71
2023-01-19T07:53:44.169Z,24.72
2023-01-19T07:54:43.831Z,24.68
2023-01-19T08:19:44.593Z,24.64
2023-01-19T08:22:43.599Z,24.67
2023-01-19T08:24:43.555Z,24.68
2023-01-19T08:25:43.536Z,24.62
2023-01-19T08:26:43.551Z,24.67
2023-01-19T08:27:43.501Z,24.65
2023-01-19T08:29:43.717Z,24.67
2023-01-19T08:30:43.679Z,24.65
2023-01-19T08:31:43.568Z,24.67
2023-01-19T08:32:43.598Z,24.65
2023-01-19T08:33:43.725Z,24.64
2023-01-19T08:34:44.547Z,24.68
2023-01-19T08:35:43.504Z,24.65
2023-01-19T08:37:43.447Z,24.64
2023-01-19T08:40:44.397Z,24.64
2023-01-19T08:41:44.454Z,24.64
2023-01-19T08:44:57.355Z,24.62
2023-01-19T08:45:44.382Z,24.62
2023-01-19T08:46:43.432Z,24.64
2023-01-19T08:47:43.477Z,24.62
2023-01-19T08:50:43.447Z,24.62
2023-01-19T08:51:43.370Z,24.60
2023-01-19T08:52:43.289Z,24.65
2023-01-19T08:53:43.353Z,24.64
2023-01-19T08:54:43.679Z,24.67
2023-01-19T08:55:43.241Z,24.71
2023-01-19T08:56:43.280Z,24.75
2023-01-19T08:57:43.237Z,24.77
2023-01-19T08:58:43.225Z,24.79
2023-01-19T08:59:44.647Z,24.83
2023-01-19T09:00:43.285Z,24.83
2023-01-19T09:01:43.466Z,24.88
2023-01-19T09:02:43.847Z,24.92
2023-01-19T09:03:43.187Z,24.93
2023-01-19T09:04:43.663Z,24.95
2023-01-19T09:05:43.149Z,24.98
2023-01-19T09:06:43.301Z,25.02
2023-01-19T09:07:44.199Z,25.02
2023-01-19T09:08:43.176Z,25.05
2023-01-19T09:09:43.189Z,25.05
2023-01-19T09:10:43.112Z,25.06
2023-01-19T09:11:43.098Z,25.05
2023-01-19T09:12:43.192Z,25.09
2023-01-19T09:13:44.078Z,25.10
2023-01-19T09:14:43.162Z,25.12
2023-01-19T09:15:43.128Z,25.15
2023-01-19T09:16:43.069Z,25.17
2023-01-19T09:17:43.048Z,25.17
2023-01-19T09:18:43.041Z,25.19
2023-01-19T09:19:43.046Z,25.19
2023-01-19T09:20:43.042Z,25.23
2023-01-19T09:21:43.012Z,25.24
2023-01-19T09:22:43.165Z,25.27
2023-01-19T09:23:42.992Z,25.29
2023-01-19T09:24:43.013Z,25.30
2023-01-19T09:25:43.078Z,25.29
2023-01-19T09:26:42.967Z,25.33
2023-01-19T09:27:43.178Z,25.30
2023-01-19T09:28:42.955Z,25.30
2023-01-19T09:29:42.947Z,25.33
2023-01-19T09:30:42.990Z,25.34
2023-01-19T09:31:42.970Z,25.33
2023-01-19T09:32:43.216Z,25.38
2023-01-19T09:33:42.906Z,25.38
2023-01-19T09:34:42.898Z,25.40
2023-01-19T09:35:43.170Z,25.40
2023-01-19T09:36:42.889Z,25.41
2023-01-19T09:37:42.875Z,25.41
2023-01-19T09:38:42.864Z,25.38
2023-01-19T09:39:42.926Z,25.40
2023-01-19T09:40:46.428Z,25.38
2023-01-19T09:41:42.839Z,25.36
2023-01-19T09:42:42.881Z,25.36
2023-01-19T09:43:42.836Z,25.33
2023-01-19T09:44:43.357Z,25.32
2023-01-19T09:45:43.279Z,25.27
2023-01-19T09:46:43.740Z,25.22
2023-01-19T09:51:43.179Z,25.12
2023-01-19T09:56:43.229Z,25.05
2023-01-19T10:51:43.336Z,25.36
2023-01-19T11:25:42.925Z,25.48
2023-01-19T13:37:40.772Z,25.10
